sensor_id;sensor_type;location;lat;lon;timestamp;P1;durP1;ratioP1;P2;durP2;ratioP2
81150;SDS011;70629;-26.026;27.976;2023-08-01T00:00:10;12.52;;;6.45;;
81150;SDS011;70629;-26.026;27.976;2023-08-01T00:01:45;10.98;;;6.20;;
81150;SDS011;70629;-26.026;27.976;2023-08-01T00:03:20;11.75;;;6.10;;
81150;SDS011;70629;-26.026;27.976;2023-08-01T00:06:30;11.02;;;5.43;;
81150;SDS011;70629;-26.026;27.976;2023-08-01T00:08:05;11.57;;;6.10;;
81150;SDS011;70629;-26.026;27.976;2023-08-01T00:09:40;13.55;;;7.80;;
81150;SDS011;70629;-26.026;27.976;2023-08-01T00:11:14;14.07;;;7.53;;
81150;SDS011;70629;-26.026;27.976;2023-08-01T00:12:50;12.77;;;7.50;;
81150;SDS011;70629;-26.026;27.976;2023-08-01T00:14:25;14.15;;;7.25;;
81150;SDS011;70629;-26.026;27.976;2023-08-01T00:17:40;10.18;;;6.13;;
81150;SDS011;70629;-26.026;27.976;2023-08-01T00:19:15;12.45;;;6.68;;
81150;SDS011;70629;-26.026;27.976;2023-08-01T00:22:26;13.80;;;6.32;;
81150;SDS011;70629;-26.026;27.976;2023-08-01T00:24:01;13.23;;;6.88;;
81150;SDS011;70629;-26.026;27.976;2023-08-01T00:25:36;12.10;;;6.43;;
81150;SDS011;70629;-26.026;27.976;2023-08-01T00:28:45;12.55;;;7.10;;
81150;SDS011;70629;-26.026;27.976;2023-08-01T00:30:20;12.23;;;6.82;;
81150;SDS011;70629;-26.026;27.976;2023-08-01T00:31:55;13.45;;;6.82;;
81150;SDS011;70629;-26.026;27.976;2023-08-01T00:33:30;12.68;;;7.18;;
81150;SDS011;70629;-26.026;27.976;2023-08-01T00:35:05;17.20;;;7.80;;
81150;SDS011;70629;-26.026;27.976;2023-08-01T00:36:40;13.68;;;7.30;;
81150;SDS011;70629;-26.026;27.976;2023-08-01T00:38:15;16.88;;;7.80;;
81150;SDS011;70629;-26.026;27.976;2023-08-01T00:39:50;12.27;;;7.43;;
81150;SDS011;70629;-26.026;27.976;2023-08-01T00:43:00;14.40;;;7.13;;
81150;SDS011;70629;-26.026;27.976;2023-08-01T00:44:35;13.25;;;6.55;;
81150;SDS011;70629;-26.026;27.976;2023-08-01T00:46:10;12.00;;;7.40;;
81150;SDS011;70629;-26.026;27.976;2023-08-01T00:47:45;14.32;;;7.43;;
81150;SDS011;70629;-26.026;27.976;2023-08-01T00:49:20;15.73;;;8.20;;
81150;SDS011;70629;-26.026;27.976;2023-08-01T00:50:59;16.30;;;7.82;;
81150;SDS011;70629;-26.026;27.976;2023-08-01T00:52:36;15.82;;;7.25;;
81150;SDS011;70629;-26.026;27.976;2023-08-01T00:54:10;11.88;;;7.80;;
81150;SDS011;70629;-26.026;27.976;2023-08-01T00:57:20;13.07;;;6.53;;
81150;SDS011;70629;-26.026;27.976;2023-08-01T00:58:55;10.25;;;5.70;;
81150;SDS011;70629;-26.026;27.976;2023-08-01T01:00:31;17.42;;;6.18;;
81150;SDS011;70629;-26.026;27.976;2023-08-01T01:02:07;9.20;;;5.57;;
81150;SDS011;70629;-26.026;27.976;2023-08-01T01:03:42;10.00;;;5.28;;
81150;SDS011;70629;-26.026;27.976;2023-08-01T01:05:17;14.38;;;6.75;;
81150;SDS011;70629;-26.026;27.976;2023-08-01T01:07:03;12.75;;;6.75;;
81150;SDS011;70629;-26.026;27.976;2023-08-01T01:08:40;13.57;;;7.35;;
81150;SDS011;70629;-26.026;27.976;2023-08-01T01:10:15;13.43;;;6.03;;
81150;SDS011;70629;-26.026;27.976;2023-08-01T01:11:50;12.85;;;5.22;;
81150;SDS011;70629;-26.026;27.976;2023-08-01T01:15:00;9.23;;;4.80;;
81150;SDS011;70629;-26.026;27.976;2023-08-01T01:16:35;9.45;;;5.10;;
81150;SDS011;70629;-26.026;27.976;2023-08-01T01:18:10;12.27;;;4.65;;
81150;SDS011;70629;-26.026;27.976;2023-08-01T01:19:45;9.32;;;4.13;;
81150;SDS011;70629;-26.026;27.976;2023-08-01T01:22:55;10.32;;;5.25;;
81150;SDS011;70629;-26.026;27.976;2023-08-01T01:24:30;13.80;;;6.07;;
81150;SDS011;70629;-26.026;27.976;2023-08-01T01:26:07;15.23;;;5.40;;
81150;SDS011;70629;-26.026;27.976;2023-08-01T01:27:43;10.73;;;6.53;;
81150;SDS011;70629;-26.026;27.976;2023-08-01T01:29:19;11.73;;;4.80;;
81150;SDS011;70629;-26.026;27.976;2023-08-01T01:30:56;8.15;;;4.82;;
81150;SDS011;70629;-26.026;27.976;2023-08-01T01:32:32;8.63;;;4.40;;
81150;SDS011;70629;-26.026;27.976;2023-08-01T01:34:08;13.07;;;4.90;;
81150;SDS011;70629;-26.026;27.976;2023-08-01T01:35:44;11.15;;;5.80;;
81150;SDS011;70629;-26.026;27.976;2023-08-01T01:37:19;6.75;;;4.35;;
81150;SDS011;70629;-26.026;27.976;2023-08-01T01:38:53;8.10;;;4.35;;
81150;SDS011;70629;-26.026;27.976;2023-08-01T01:42:04;10.35;;;4.03;;
81150;SDS011;70629;-26.026;27.976;2023-08-01T01:43:39;9.65;;;3.60;;
81150;SDS011;70629;-26.026;27.976;2023-08-01T01:45:15;7.13;;;3.00;;
81150;SDS011;70629;-26.026;27.976;2023-08-01T01:48:24;7.13;;;3.25;;
81150;SDS011;70629;-26.026;27.976;2023-08-01T01:51:34;7.05;;;2.67;;
81150;SDS011;70629;-26.026;27.976;2023-08-01T01:54:43;6.68;;;2.33;;
81150;SDS011;70629;-26.026;27.976;2023-08-01T01:56:18;5.47;;;2.13;;
81150;SDS011;70629;-26.026;27.976;2023-08-01T01:57:53;4.55;;;2.15;;
81150;SDS011;70629;-26.026;27.976;2023-08-01T01:59:28;4.53;;;1.80;;
81150;SDS011;70629;-26.026;27.976;2023-08-01T02:01:03;4.65;;;1.80;;
81150;SDS011;70629;-26.026;27.976;2023-08-01T02:02:38;5.75;;;1.90;;
81150;SDS011;70629;-26.026;27.976;2023-08-01T02:04:13;4.65;;;1.38;;
81150;SDS011;70629;-26.026;27.976;2023-08-01T02:05:48;3.55;;;1.27;;
81150;SDS011;70629;-26.026;27.976;2023-08-01T02:08:58;3.38;;;1.35;;
81150;SDS011;70629;-26.026;27.976;2023-08-01T02:10:32;4.05;;;1.58;;
81150;SDS011;70629;-26.026;27.976;2023-08-01T02:13:43;3.22;;;1.38;;
81150;SDS011;70629;-26.026;27.976;2023-08-01T02:15:18;2.40;;;1.10;;
81150;SDS011;70629;-26.026;27.976;2023-08-01T02:16:53;3.08;;;1.20;;
81150;SDS011;70629;-26.026;27.976;2023-08-01T02:18:28;3.40;;;1.20;;
81150;SDS011;70629;-26.026;27.976;2023-08-01T02:21:37;4.90;;;1.42;;
81150;SDS011;70629;-26.026;27.976;2023-08-01T02:23:12;2.53;;;0.90;;
81150;SDS011;70629;-26.026;27.976;2023-08-01T02:24:49;4.78;;;0.90;;
81150;SDS011;70629;-26.026;27.976;2023-08-01T02:26:24;3.22;;;1.20;;
81150;SDS011;70629;-26.026;27.976;2023-08-01T02:27:59;10.52;;;1.67;;
81150;SDS011;70629;-26.026;27.976;2023-08-01T02:29:34;6.03;;;1.83;;
81150;SDS011;70629;-26.026;27.976;2023-08-01T02:31:09;5.88;;;1.45;;
81150;SDS011;70629;-26.026;27.976;2023-08-01T02:32:45;6.45;;;1.77;;
81150;SDS011;70629;-26.026;27.976;2023-08-01T02:35:54;3.20;;;1.20;;
81150;SDS011;70629;-26.026;27.976;2023-08-01T02:39:04;6.65;;;1.48;;
81150;SDS011;70629;-26.026;27.976;2023-08-01T02:40:38;5.47;;;1.55;;
81150;SDS011;70629;-26.026;27.976;2023-08-01T02:43:48;7.57;;;1.83;;
81150;SDS011;70629;-26.026;27.976;2023-08-01T02:45:23;5.95;;;1.65;;
81150;SDS011;70629;-26.026;27.976;2023-08-01T02:46:58;5.53;;;1.38;;
81150;SDS011;70629;-26.026;27.976;2023-08-01T02:48:33;6.47;;;1.50;;
81150;SDS011;70629;-26.026;27.976;2023-08-01T02:50:09;9.75;;;1.48;;
81150;SDS011;70629;-26.026;27.976;2023-08-01T02:51:45;9.63;;;1.63;;
81150;SDS011;70629;-26.026;27.976;2023-08-01T02:53:19;7.18;;;1.63;;
81150;SDS011;70629;-26.026;27.976;2023-08-01T02:54:54;7.70;;;1.83;;
81150;SDS011;70629;-26.026;27.976;2023-08-01T02:56:29;6.93;;;1.92;;
81150;SDS011;70629;-26.026;27.976;2023-08-01T02:58:04;6.63;;;2.03;;
81150;SDS011;70629;-26.026;27.976;2023-08-01T03:01:14;5.93;;;1.60;;
81150;SDS011;70629;-26.026;27.976;2023-08-01T03:04:23;4.95;;;1.65;;
81150;SDS011;70629;-26.026;27.976;2023-08-01T03:06:17;8.15;;;2.25;;
81150;SDS011;70629;-26.026;27.976;2023-08-01T03:07:52;7.47;;;1.67;;
81150;SDS011;70629;-26.026;27.976;2023-08-01T03:09:27;6.95;;;1.52;;
81150;SDS011;70629;-26.026;27.976;2023-08-01T03:11:02;4.00;;;1.52;;
81150;SDS011;70629;-26.026;27.976;2023-08-01T03:12:37;5.75;;;1.20;;
81150;SDS011;70629;-26.026;27.976;2023-08-01T03:14:12;5.40;;;1.17;;
81150;SDS011;70629;-26.026;27.976;2023-08-01T03:15:47;3.28;;;1.40;;
81150;SDS011;70629;-26.026;27.976;2023-08-01T03:18:56;6.32;;;1.50;;
81150;SDS011;70629;-26.026;27.976;2023-08-01T03:20:31;4.43;;;1.02;;
81150;SDS011;70629;-26.026;27.976;2023-08-01T03:23:41;5.30;;;1.10;;
81150;SDS011;70629;-26.026;27.976;2023-08-01T03:25:16;2.83;;;1.02;;
81150;SDS011;70629;-26.026;27.976;2023-08-01T03:28:26;3.53;;;1.15;;
81150;SDS011;70629;-26.026;27.976;2023-08-01T03:30:01;6.88;;;1.40;;
81150;SDS011;70629;-26.026;27.976;2023-08-01T03:31:38;5.28;;;1.52;;
81150;SDS011;70629;-26.026;27.976;2023-08-01T03:34:47;4.90;;;1.40;;
81150;SDS011;70629;-26.026;27.976;2023-08-01T03:37:56;5.13;;;1.60;;
81150;SDS011;70629;-26.026;27.976;2023-08-01T03:39:31;5.07;;;1.67;;
81150;SDS011;70629;-26.026;27.976;2023-08-01T03:41:06;3.72;;;1.50;;
81150;SDS011;70629;-26.026;27.976;2023-08-01T03:42:41;5.45;;;1.17;;
81150;SDS011;70629;-26.026;27.976;2023-08-01T03:44:17;4.65;;;1.45;;
81150;SDS011;70629;-26.026;27.976;2023-08-01T03:47:27;3.42;;;1.35;;
81150;SDS011;70629;-26.026;27.976;2023-08-01T03:50:37;3.80;;;1.40;;
81150;SDS011;70629;-26.026;27.976;2023-08-01T03:52:11;3.05;;;1.45;;
81150;SDS011;70629;-26.026;27.976;2023-08-01T03:53:47;3.72;;;1.38;;
81150;SDS011;70629;-26.026;27.976;2023-08-01T03:55:35;3.83;;;1.70;;
81150;SDS011;70629;-26.026;27.976;2023-08-01T03:57:10;4.03;;;1.70;;
81150;SDS011;70629;-26.026;27.976;2023-08-01T03:58:45;4.13;;;1.38;;
81150;SDS011;70629;-26.026;27.976;2023-08-01T04:00:20;3.45;;;1.60;;
81150;SDS011;70629;-26.026;27.976;2023-08-01T04:01:55;3.72;;;1.58;;
81150;SDS011;70629;-26.026;27.976;2023-08-01T04:03:30;4.90;;;1.70;;
81150;SDS011;70629;-26.026;27.976;2023-08-01T04:05:06;6.47;;;1.83;;
81150;SDS011;70629;-26.026;27.976;2023-08-01T04:06:42;6.18;;;2.40;;
81150;SDS011;70629;-26.026;27.976;2023-08-01T04:08:17;5.22;;;3.13;;
81150;SDS011;70629;-26.026;27.976;2023-08-01T04:09:52;7.05;;;4.80;;
81150;SDS011;70629;-26.026;27.976;2023-08-01T04:11:27;6.53;;;3.97;;
81150;SDS011;70629;-26.026;27.976;2023-08-01T04:13:04;5.15;;;3.10;;
81150;SDS011;70629;-26.026;27.976;2023-08-01T04:14:38;4.65;;;2.05;;
81150;SDS011;70629;-26.026;27.976;2023-08-01T04:16:14;5.68;;;2.75;;
81150;SDS011;70629;-26.026;27.976;2023-08-01T04:17:49;5.72;;;3.17;;
81150;SDS011;70629;-26.026;27.976;2023-08-01T04:19:24;6.00;;;2.50;;
81150;SDS011;70629;-26.026;27.976;2023-08-01T04:20:59;5.95;;;2.58;;
81150;SDS011;70629;-26.026;27.976;2023-08-01T04:24:08;3.60;;;1.98;;
81150;SDS011;70629;-26.026;27.976;2023-08-01T04:25:43;8.18;;;2.50;;
81150;SDS011;70629;-26.026;27.976;2023-08-01T04:27:19;4.68;;;2.08;;
81150;SDS011;70629;-26.026;27.976;2023-08-01T04:30:28;6.78;;;2.08;;
81150;SDS011;70629;-26.026;27.976;2023-08-01T04:32:03;8.88;;;2.65;;
81150;SDS011;70629;-26.026;27.976;2023-08-01T04:33:39;10.93;;;2.90;;
81150;SDS011;70629;-26.026;27.976;2023-08-01T04:35:13;6.80;;;2.28;;
81150;SDS011;70629;-26.026;27.976;2023-08-01T04:38:23;9.55;;;2.40;;
81150;SDS011;70629;-26.026;27.976;2023-08-01T04:39:58;9.20;;;3.45;;
81150;SDS011;70629;-26.026;27.976;2023-08-01T04:41:33;9.50;;;2.83;;
81150;SDS011;70629;-26.026;27.976;2023-08-01T04:43:09;10.43;;;2.90;;
81150;SDS011;70629;-26.026;27.976;2023-08-01T04:44:44;10.80;;;3.58;;
81150;SDS011;70629;-26.026;27.976;2023-08-01T04:46:19;17.00;;;3.33;;
81150;SDS011;70629;-26.026;27.976;2023-08-01T04:49:29;8.55;;;2.47;;
81150;SDS011;70629;-26.026;27.976;2023-08-01T04:51:04;4.78;;;2.33;;
81150;SDS011;70629;-26.026;27.976;2023-08-01T04:52:39;6.85;;;2.85;;
81150;SDS011;70629;-26.026;27.976;2023-08-01T04:54:14;8.25;;;2.33;;
81150;SDS011;70629;-26.026;27.976;2023-08-01T04:55:48;8.93;;;2.33;;
81150;SDS011;70629;-26.026;27.976;2023-08-01T04:57:24;6.68;;;3.08;;
81150;SDS011;70629;-26.026;27.976;2023-08-01T04:58:59;6.82;;;3.30;;
81150;SDS011;70629;-26.026;27.976;2023-08-01T05:00:36;5.85;;;2.45;;
81150;SDS011;70629;-26.026;27.976;2023-08-01T05:02:12;4.55;;;2.20;;
81150;SDS011;70629;-26.026;27.976;2023-08-01T05:05:21;5.82;;;2.58;;
81150;SDS011;70629;-26.026;27.976;2023-08-01T05:08:30;4.57;;;2.38;;
81150;SDS011;70629;-26.026;27.976;2023-08-01T05:10:06;8.95;;;3.47;;
81150;SDS011;70629;-26.026;27.976;2023-08-01T05:11:41;6.78;;;2.90;;
81150;SDS011;70629;-26.026;27.976;2023-08-01T05:13:16;6.65;;;3.35;;
81150;SDS011;70629;-26.026;27.976;2023-08-01T05:16:25;4.47;;;2.65;;
81150;SDS011;70629;-26.026;27.976;2023-08-01T05:18:00;10.40;;;3.67;;
81150;SDS011;70629;-26.026;27.976;2023-08-01T05:21:09;4.75;;;2.38;;
81150;SDS011;70629;-26.026;27.976;2023-08-01T05:22:44;7.78;;;2.75;;
81150;SDS011;70629;-26.026;27.976;2023-08-01T05:24:19;7.95;;;3.22;;
81150;SDS011;70629;-26.026;27.976;2023-08-01T05:25:55;6.82;;;3.13;;
81150;SDS011;70629;-26.026;27.976;2023-08-01T05:27:30;12.93;;;3.35;;
81150;SDS011;70629;-26.026;27.976;2023-08-01T05:29:05;10.43;;;3.17;;
81150;SDS011;70629;-26.026;27.976;2023-08-01T05:30:40;14.80;;;4.25;;
81150;SDS011;70629;-26.026;27.976;2023-08-01T05:32:15;6.43;;;3.38;;
81150;SDS011;70629;-26.026;27.976;2023-08-01T05:35:24;9.60;;;4.18;;
81150;SDS011;70629;-26.026;27.976;2023-08-01T05:36:59;9.90;;;4.03;;
81150;SDS011;70629;-26.026;27.976;2023-08-01T05:38:34;13.23;;;4.22;;
81150;SDS011;70629;-26.026;27.976;2023-08-01T05:40:09;9.00;;;4.00;;
81150;SDS011;70629;-26.026;27.976;2023-08-01T05:41:44;14.00;;;4.32;;
81150;SDS011;70629;-26.026;27.976;2023-08-01T05:43:19;13.63;;;5.43;;
81150;SDS011;70629;-26.026;27.976;2023-08-01T05:44:54;14.30;;;5.20;;
81150;SDS011;70629;-26.026;27.976;2023-08-01T05:46:29;14.07;;;4.43;;
81150;SDS011;70629;-26.026;27.976;2023-08-01T05:48:04;7.50;;;4.07;;
81150;SDS011;70629;-26.026;27.976;2023-08-01T05:49:39;11.65;;;2.97;;
81150;SDS011;70629;-26.026;27.976;2023-08-01T05:51:15;8.95;;;3.40;;
81150;SDS011;70629;-26.026;27.976;2023-08-01T05:52:50;5.90;;;2.63;;
81150;SDS011;70629;-26.026;27.976;2023-08-01T05:54:25;7.35;;;3.10;;
81150;SDS011;70629;-26.026;27.976;2023-08-01T05:56:00;14.02;;;3.47;;
81150;SDS011;70629;-26.026;27.976;2023-08-01T05:59:10;4.20;;;2.17;;
81150;SDS011;70629;-26.026;27.976;2023-08-01T06:00:45;8.13;;;2.80;;
81150;SDS011;70629;-26.026;27.976;2023-08-01T06:02:20;6.82;;;2.22;;
81150;SDS011;70629;-26.026;27.976;2023-08-01T06:03:55;5.32;;;2.20;;
81150;SDS011;70629;-26.026;27.976;2023-08-01T06:05:30;8.48;;;2.33;;
81150;SDS011;70629;-26.026;27.976;2023-08-01T06:07:05;3.90;;;1.98;;
81150;SDS011;70629;-26.026;27.976;2023-08-01T06:08:40;7.22;;;1.98;;
81150;SDS011;70629;-26.026;27.976;2023-08-01T06:10:15;5.40;;;1.58;;
81150;SDS011;70629;-26.026;27.976;2023-08-01T06:11:50;4.47;;;1.63;;
81150;SDS011;70629;-26.026;27.976;2023-08-01T06:13:25;6.43;;;1.40;;
81150;SDS011;70629;-26.026;27.976;2023-08-01T06:15:00;7.95;;;1.48;;
81150;SDS011;70629;-26.026;27.976;2023-08-01T06:18:10;3.33;;;1.10;;
81150;SDS011;70629;-26.026;27.976;2023-08-01T06:19:46;2.08;;;0.93;;
81150;SDS011;70629;-26.026;27.976;2023-08-01T06:21:21;2.00;;;0.75;;
81150;SDS011;70629;-26.026;27.976;2023-08-01T06:22:56;2.92;;;0.60;;
81150;SDS011;70629;-26.026;27.976;2023-08-01T06:24:31;1.55;;;0.70;;
81150;SDS011;70629;-26.026;27.976;2023-08-01T06:26:06;2.25;;;0.82;;
81150;SDS011;70629;-26.026;27.976;2023-08-01T06:27:41;3.53;;;0.88;;
81150;SDS011;70629;-26.026;27.976;2023-08-01T06:29:16;2.13;;;0.93;;
81150;SDS011;70629;-26.026;27.976;2023-08-01T06:30:51;4.88;;;1.00;;
81150;SDS011;70629;-26.026;27.976;2023-08-01T06:32:26;1.58;;;0.65;;
81150;SDS011;70629;-26.026;27.976;2023-08-01T06:34:01;1.67;;;0.70;;
81150;SDS011;70629;-26.026;27.976;2023-08-01T06:37:10;2.33;;;0.80;;
81150;SDS011;70629;-26.026;27.976;2023-08-01T06:38:45;1.95;;;0.77;;
81150;SDS011;70629;-26.026;27.976;2023-08-01T06:40:20;1.60;;;0.77;;
81150;SDS011;70629;-26.026;27.976;2023-08-01T06:41:55;1.23;;;0.52;;
81150;SDS011;70629;-26.026;27.976;2023-08-01T06:43:30;8.05;;;0.93;;
81150;SDS011;70629;-26.026;27.976;2023-08-01T06:45:05;1.63;;;0.70;;
81150;SDS011;70629;-26.026;27.976;2023-08-01T06:46:40;3.58;;;0.88;;
81150;SDS011;70629;-26.026;27.976;2023-08-01T06:48:16;2.83;;;0.95;;
81150;SDS011;70629;-26.026;27.976;2023-08-01T06:49:51;2.88;;;0.70;;
81150;SDS011;70629;-26.026;27.976;2023-08-01T06:51:26;4.53;;;0.93;;
81150;SDS011;70629;-26.026;27.976;2023-08-01T06:54:36;3.65;;;0.90;;
81150;SDS011;70629;-26.026;27.976;2023-08-01T06:56:11;5.25;;;1.02;;
81150;SDS011;70629;-26.026;27.976;2023-08-01T06:57:47;2.10;;;0.90;;
81150;SDS011;70629;-26.026;27.976;2023-08-01T07:00:57;1.95;;;0.70;;
81150;SDS011;70629;-26.026;27.976;2023-08-01T07:02:31;2.42;;;1.00;;
81150;SDS011;70629;-26.026;27.976;2023-08-01T07:04:07;3.05;;;0.93;;
81150;SDS011;70629;-26.026;27.976;2023-08-01T07:07:16;1.92;;;0.68;;
81150;SDS011;70629;-26.026;27.976;2023-08-01T07:08:51;4.68;;;1.13;;
81150;SDS011;70629;-26.026;27.976;2023-08-01T07:10:26;4.00;;;1.00;;
81150;SDS011;70629;-26.026;27.976;2023-08-01T07:13:35;1.70;;;0.88;;
81150;SDS011;70629;-26.026;27.976;2023-08-01T07:15:10;2.05;;;0.93;;
81150;SDS011;70629;-26.026;27.976;2023-08-01T07:16:45;3.13;;;1.13;;
81150;SDS011;70629;-26.026;27.976;2023-08-01T07:19:55;2.65;;;1.00;;
81150;SDS011;70629;-26.026;27.976;2023-08-01T07:23:04;3.15;;;1.27;;
81150;SDS011;70629;-26.026;27.976;2023-08-01T07:24:39;4.40;;;1.30;;
81150;SDS011;70629;-26.026;27.976;2023-08-01T07:27:48;5.53;;;1.98;;
81150;SDS011;70629;-26.026;27.976;2023-08-01T07:29:23;4.70;;;1.63;;
81150;SDS011;70629;-26.026;27.976;2023-08-01T07:30:59;7.43;;;2.03;;
81150;SDS011;70629;-26.026;27.976;2023-08-01T07:32:39;5.32;;;1.58;;
81150;SDS011;70629;-26.026;27.976;2023-08-01T07:34:15;4.93;;;1.88;;
81150;SDS011;70629;-26.026;27.976;2023-08-01T07:35:51;4.53;;;1.83;;
81150;SDS011;70629;-26.026;27.976;2023-08-01T07:39:02;5.28;;;2.20;;
81150;SDS011;70629;-26.026;27.976;2023-08-01T07:40:37;5.60;;;2.20;;
81150;SDS011;70629;-26.026;27.976;2023-08-01T07:42:12;4.68;;;1.95;;
81150;SDS011;70629;-26.026;27.976;2023-08-01T07:45:23;4.43;;;1.90;;
81150;SDS011;70629;-26.026;27.976;2023-08-01T07:46:58;5.25;;;2.08;;
81150;SDS011;70629;-26.026;27.976;2023-08-01T07:48:33;5.13;;;2.65;;
81150;SDS011;70629;-26.026;27.976;2023-08-01T07:50:08;4.35;;;1.98;;
81150;SDS011;70629;-26.026;27.976;2023-08-01T07:51:43;6.05;;;2.50;;
81150;SDS011;70629;-26.026;27.976;2023-08-01T07:54:53;10.27;;;2.00;;
81150;SDS011;70629;-26.026;27.976;2023-08-01T07:56:29;7.78;;;2.75;;
81150;SDS011;70629;-26.026;27.976;2023-08-01T07:58:04;6.25;;;2.28;;
81150;SDS011;70629;-26.026;27.976;2023-08-01T07:59:39;8.18;;;3.08;;
81150;SDS011;70629;-26.026;27.976;2023-08-01T08:01:14;4.90;;;2.30;;
81150;SDS011;70629;-26.026;27.976;2023-08-01T08:02:49;7.03;;;3.40;;
81150;SDS011;70629;-26.026;27.976;2023-08-01T08:04:24;6.03;;;3.03;;
81150;SDS011;70629;-26.026;27.976;2023-08-01T08:05:59;7.78;;;2.83;;
81150;SDS011;70629;-26.026;27.976;2023-08-01T08:07:35;7.75;;;2.67;;
81150;SDS011;70629;-26.026;27.976;2023-08-01T08:09:11;9.32;;;3.17;;
81150;SDS011;70629;-26.026;27.976;2023-08-01T08:12:23;6.35;;;3.00;;
81150;SDS011;70629;-26.026;27.976;2023-08-01T08:13:58;11.02;;;3.40;;
81150;SDS011;70629;-26.026;27.976;2023-08-01T08:15:34;7.85;;;3.10;;
81150;SDS011;70629;-26.026;27.976;2023-08-01T08:17:09;15.90;;;4.55;;
81150;SDS011;70629;-26.026;27.976;2023-08-01T08:20:19;18.27;;;8.52;;
81150;SDS011;70629;-26.026;27.976;2023-08-01T08:21:54;7.55;;;4.43;;
81150;SDS011;70629;-26.026;27.976;2023-08-01T08:23:29;15.80;;;5.22;;
81150;SDS011;70629;-26.026;27.976;2023-08-01T08:26:38;10.30;;;4.18;;
81150;SDS011;70629;-26.026;27.976;2023-08-01T08:28:14;9.25;;;4.00;;
81150;SDS011;70629;-26.026;27.976;2023-08-01T08:29:49;9.50;;;4.45;;
81150;SDS011;70629;-26.026;27.976;2023-08-01T08:31:24;11.30;;;5.47;;
81150;SDS011;70629;-26.026;27.976;2023-08-01T08:33:00;7.82;;;4.00;;
81150;SDS011;70629;-26.026;27.976;2023-08-01T08:34:38;24.58;;;11.65;;
81150;SDS011;70629;-26.026;27.976;2023-08-01T08:36:13;9.20;;;3.13;;
81150;SDS011;70629;-26.026;27.976;2023-08-01T08:39:22;10.35;;;6.15;;
81150;SDS011;70629;-26.026;27.976;2023-08-01T08:42:47;10.65;;;2.95;;
81150;SDS011;70629;-26.026;27.976;2023-08-01T08:44:24;8.68;;;3.60;;
81150;SDS011;70629;-26.026;27.976;2023-08-01T08:46:02;8.55;;;2.95;;
81150;SDS011;70629;-26.026;27.976;2023-08-01T08:48:05;6.68;;;2.72;;
81150;SDS011;70629;-26.026;27.976;2023-08-01T08:49:47;6.88;;;3.20;;
81150;SDS011;70629;-26.026;27.976;2023-08-01T08:51:23;7.88;;;2.92;;
81150;SDS011;70629;-26.026;27.976;2023-08-01T08:53:01;18.10;;;8.98;;
81150;SDS011;70629;-26.026;27.976;2023-08-01T08:54:36;14.05;;;8.02;;
81150;SDS011;70629;-26.026;27.976;2023-08-01T08:56:13;7.55;;;2.90;;
81150;SDS011;70629;-26.026;27.976;2023-08-01T08:57:50;14.75;;;7.30;;
81150;SDS011;70629;-26.026;27.976;2023-08-01T08:59:26;18.75;;;8.82;;
81150;SDS011;70629;-26.026;27.976;2023-08-01T09:01:04;19.35;;;8.55;;
81150;SDS011;70629;-26.026;27.976;2023-08-01T09:02:42;16.40;;;6.63;;
81150;SDS011;70629;-26.026;27.976;2023-08-01T09:04:16;34.67;;;21.33;;
81150;SDS011;70629;-26.026;27.976;2023-08-01T09:05:53;12.95;;;7.03;;
81150;SDS011;70629;-26.026;27.976;2023-08-01T09:07:34;11.02;;;3.88;;
81150;SDS011;70629;-26.026;27.976;2023-08-01T09:09:16;10.10;;;2.97;;
81150;SDS011;70629;-26.026;27.976;2023-08-01T09:10:52;15.23;;;8.02;;
81150;SDS011;70629;-26.026;27.976;2023-08-01T09:12:27;17.58;;;6.53;;
81150;SDS011;70629;-26.026;27.976;2023-08-01T09:14:03;13.70;;;3.85;;
81150;SDS011;70629;-26.026;27.976;2023-08-01T09:15:39;19.23;;;9.25;;
81150;SDS011;70629;-26.026;27.976;2023-08-01T09:17:18;15.93;;;7.65;;
81150;SDS011;70629;-26.026;27.976;2023-08-01T09:18:53;7.88;;;3.58;;
81150;SDS011;70629;-26.026;27.976;2023-08-01T09:20:28;9.90;;;3.33;;
81150;SDS011;70629;-26.026;27.976;2023-08-01T09:22:10;9.07;;;3.55;;
81150;SDS011;70629;-26.026;27.976;2023-08-01T09:23:46;11.95;;;3.88;;
81150;SDS011;70629;-26.026;27.976;2023-08-01T09:25:30;14.43;;;4.18;;
81150;SDS011;70629;-26.026;27.976;2023-08-01T09:27:08;14.65;;;3.65;;
81150;SDS011;70629;-26.026;27.976;2023-08-01T09:28:43;10.38;;;5.00;;
81150;SDS011;70629;-26.026;27.976;2023-08-01T09:30:29;23.30;;;13.65;;
81150;SDS011;70629;-26.026;27.976;2023-08-01T09:32:13;11.57;;;3.10;;
81150;SDS011;70629;-26.026;27.976;2023-08-01T09:33:49;18.20;;;7.05;;
81150;SDS011;70629;-26.026;27.976;2023-08-01T09:35:24;14.93;;;4.00;;
81150;SDS011;70629;-26.026;27.976;2023-08-01T09:36:59;20.67;;;11.73;;
81150;SDS011;70629;-26.026;27.976;2023-08-01T09:38:35;11.95;;;4.32;;
81150;SDS011;70629;-26.026;27.976;2023-08-01T09:40:11;13.02;;;3.97;;
81150;SDS011;70629;-26.026;27.976;2023-08-01T09:42:00;7.15;;;4.28;;
81150;SDS011;70629;-26.026;27.976;2023-08-01T09:43:36;11.38;;;4.78;;
81150;SDS011;70629;-26.026;27.976;2023-08-01T09:45:15;17.60;;;4.00;;
81150;SDS011;70629;-26.026;27.976;2023-08-01T09:46:58;33.30;;;16.45;;
81150;SDS011;70629;-26.026;27.976;2023-08-01T09:48:34;10.88;;;3.85;;
81150;SDS011;70629;-26.026;27.976;2023-08-01T09:50:12;11.77;;;5.35;;
81150;SDS011;70629;-26.026;27.976;2023-08-01T09:51:55;10.85;;;3.80;;
81150;SDS011;70629;-26.026;27.976;2023-08-01T09:53:31;8.82;;;4.47;;
81150;SDS011;70629;-26.026;27.976;2023-08-01T09:55:07;8.07;;;4.18;;
81150;SDS011;70629;-26.026;27.976;2023-08-01T09:56:45;14.25;;;4.93;;
81150;SDS011;70629;-26.026;27.976;2023-08-01T09:58:23;8.73;;;4.55;;
81150;SDS011;70629;-26.026;27.976;2023-08-01T10:00:00;9.82;;;4.82;;
81150;SDS011;70629;-26.026;27.976;2023-08-01T10:01:35;7.68;;;4.65;;
81150;SDS011;70629;-26.026;27.976;2023-08-01T10:03:12;8.75;;;5.63;;
81150;SDS011;70629;-26.026;27.976;2023-08-01T10:04:48;13.05;;;6.85;;
81150;SDS011;70629;-26.026;27.976;2023-08-01T10:06:29;11.15;;;6.20;;
81150;SDS011;70629;-26.026;27.976;2023-08-01T10:08:08;15.90;;;7.07;;
81150;SDS011;70629;-26.026;27.976;2023-08-01T10:09:43;11.35;;;6.60;;
81150;SDS011;70629;-26.026;27.976;2023-08-01T10:11:20;14.65;;;7.75;;
81150;SDS011;70629;-26.026;27.976;2023-08-01T10:12:56;16.10;;;7.78;;
81150;SDS011;70629;-26.026;27.976;2023-08-01T10:14:32;13.23;;;5.88;;
81150;SDS011;70629;-26.026;27.976;2023-08-01T10:16:07;12.82;;;6.97;;
81150;SDS011;70629;-26.026;27.976;2023-08-01T10:17:42;13.00;;;6.32;;
81150;SDS011;70629;-26.026;27.976;2023-08-01T10:19:18;13.43;;;5.78;;
81150;SDS011;70629;-26.026;27.976;2023-08-01T10:20:54;14.77;;;5.63;;
81150;SDS011;70629;-26.026;27.976;2023-08-01T10:22:29;13.30;;;5.18;;
81150;SDS011;70629;-26.026;27.976;2023-08-01T10:24:06;16.25;;;5.47;;
81150;SDS011;70629;-26.026;27.976;2023-08-01T10:25:41;12.55;;;3.67;;
81150;SDS011;70629;-26.026;27.976;2023-08-01T10:27:21;22.25;;;4.18;;
81150;SDS011;70629;-26.026;27.976;2023-08-01T10:28:57;9.52;;;3.65;;
81150;SDS011;70629;-26.026;27.976;2023-08-01T10:30:34;7.93;;;3.17;;
81150;SDS011;70629;-26.026;27.976;2023-08-01T10:32:09;7.32;;;3.17;;
81150;SDS011;70629;-26.026;27.976;2023-08-01T10:33:48;8.73;;;3.17;;
81150;SDS011;70629;-26.026;27.976;2023-08-01T10:35:36;10.38;;;4.05;;
81150;SDS011;70629;-26.026;27.976;2023-08-01T10:37:12;8.27;;;3.88;;
81150;SDS011;70629;-26.026;27.976;2023-08-01T10:38:51;9.20;;;3.92;;
81150;SDS011;70629;-26.026;27.976;2023-08-01T10:40:37;8.55;;;3.97;;
81150;SDS011;70629;-26.026;27.976;2023-08-01T10:42:13;8.20;;;4.88;;